Time;durP1;ratioP1;P1;durP2;ratioP2;P2;SDS_P1;SDS_P2;PMS_P1;PMS_P2;Temp;Humidity;BMP_temperature;BMP_pressure;BME280_temperature;BME280_humidity;BME280_pressure;Samples;Min_cycle;Max_cycle;Signal;HPM_P1;HPM_P2
2022/03/16 00:02:07;;;;;;;35.63;31.50;;;6.10;99.90;;;;;;5066487;28;20217;-78
2022/03/16 00:04:34;;;;;;;41.50;36.17;;;6.10;99.90;;;;;;5071339;28;20209;-80
2022/03/16 00:07:01;;;;;;;41.05;32.80;;;6.10;99.90;;;;;;5068520;28;20303;-79
2022/03/16 00:09:28;;;;;;;35.17;31.20;;;6.10;99.90;;;;;;5066013;28;20225;-77
2022/03/16 00:11:55;;;;;;;35.53;30.70;;;6.10;99.90;;;;;;5064013;28;20435;-77
2022/03/16 00:14:22;;;;;;;35.03;29.98;;;6.10;99.90;;;;;;5063964;28;20433;-77
2022/03/16 00:16:50;;;;;;;34.70;30.55;;;6.10;99.90;;;;;;5066248;28;20226;-77
2022/03/16 00:19:17;;;;;;;37.00;31.90;;;6.10;99.90;;;;;;5064664;28;20206;-78
2022/03/16 00:21:45;;;;;;;37.75;33.63;;;6.00;99.90;;;;;;5062019;28;20226;-77
2022/03/16 00:24:12;;;;;;;36.05;31.85;;;6.00;99.90;;;;;;5059942;28;20198;-77
2022/03/16 00:26:39;;;;;;;36.67;32.63;;;6.00;99.90;;;;;;5061255;28;20708;-78
2022/03/16 00:29:06;;;;;;;38.88;34.28;;;6.00;99.90;;;;;;5065354;28;20194;-79
2022/03/16 00:31:34;;;;;;;39.50;35.30;;;6.00;99.90;;;;;;5066562;28;20692;-75
2022/03/16 00:34:03;;;;;;;39.53;34.28;;;6.00;99.90;;;;;;5063968;28;20206;-77
2022/03/16 00:36:30;;;;;;;38.97;34.20;;;5.90;99.90;;;;;;5064044;28;20222;-77
2022/03/16 00:38:57;;;;;;;37.13;31.08;;;5.90;99.90;;;;;;5065907;28;20248;-77
2022/03/16 00:41:24;;;;;;;32.10;28.60;;;6.00;99.90;;;;;;5065778;28;20221;-78
2022/03/16 00:43:51;;;;;;;32.38;28.85;;;5.90;99.90;;;;;;5064745;28;20210;-79
2022/03/16 00:46:18;;;;;;;33.67;29.35;;;6.00;99.90;;;;;;5066262;28;20230;-76
2022/03/16 00:48:45;;;;;;;35.63;31.70;;;6.00;99.90;;;;;;5059191;28;20194;-76
2022/03/16 00:51:13;;;;;;;42.53;35.05;;;6.00;99.90;;;;;;5065200;28;20240;-79
2022/03/16 00:53:41;;;;;;;37.88;33.88;;;6.00;99.90;;;;;;5063582;28;20631;-76
2022/03/16 00:56:09;;;;;;;32.60;28.25;;;5.90;99.90;;;;;;5064788;28;20217;-78
2022/03/16 00:58:36;;;;;;;33.67;29.75;;;5.90;99.90;;;;;;5062496;28;20260;-79
2022/03/16 01:01:05;;;;;;;34.00;30.40;;;5.90;99.90;;;;;;5066566;28;20706;-79
2022/03/16 01:03:32;;;;;;;37.65;32.83;;;5.90;99.90;;;;;;5068465;28;20202;-79
2022/03/16 01:05:59;;;;;;;34.95;31.15;;;5.90;99.90;;;;;;5062350;28;20226;-77
2022/03/16 01:08:28;;;;;;;35.78;31.85;;;5.90;99.90;;;;;;5065671;28;20198;-77
2022/03/16 01:10:55;;;;;;;35.50;31.60;;;5.90;99.90;;;;;;5062240;28;20221;-77
2022/03/16 01:13:22;;;;;;;32.50;28.17;;;5.90;99.90;;;;;;5064917;28;20198;-79
2022/03/16 01:15:49;;;;;;;36.05;30.98;;;5.90;99.90;;;;;;5069861;28;20194;-78
2022/03/16 01:18:16;;;;;;;34.50;30.75;;;5.90;99.90;;;;;;5065333;28;20202;-78
2022/03/16 01:20:43;;;;;;;38.40;31.10;;;5.90;99.90;;;;;;5062931;28;20206;-77
2022/03/16 01:23:10;;;;;;;34.88;31.13;;;5.90;99.90;;;;;;5064912;28;20198;-79
2022/03/16 01:25:39;;;;;;;34.78;29.83;;;5.90;99.90;;;;;;5067476;28;20260;-79
2022/03/16 01:28:06;;;;;;;37.67;31.85;;;5.90;99.90;;;;;;5064596;28;20706;-79
2022/03/16 01:30:33;;;;;;;39.63;34.15;;;5.90;99.90;;;;;;5066898;28;20205;-80
2022/03/16 01:33:00;;;;;;;34.33;30.58;;;5.80;99.90;;;;;;5070624;28;20214;-79
2022/03/16 01:35:28;;;;;;;34.33;30.00;;;5.80;99.90;;;;;;5071973;28;20202;-79
2022/03/16 01:40:36;;;;;;;41.42;33.33;;;5.80;99.90;;;;;;5027609;28;20281;-76
2022/03/16 01:43:05;;;;;;;35.45;31.33;;;5.80;99.90;;;;;;5034611;28;20224;-76
2022/03/16 01:45:32;;;;;;;35.40;31.42;;;5.80;99.90;;;;;;5036066;28;20202;-75
2022/03/16 01:47:59;;;;;;;37.20;32.70;;;5.70;99.90;;;;;;5034412;28;20228;-77
2022/03/16 01:50:26;;;;;;;33.00;29.50;;;5.80;99.90;;;;;;5029092;28;20269;-78
2022/03/16 01:52:53;;;;;;;35.60;31.80;;;5.80;99.90;;;;;;5027928;28;20219;-79
2022/03/16 01:55:20;;;;;;;35.17;31.38;;;5.70;99.90;;;;;;5023905;28;20203;-76
2022/03/16 01:57:49;;;;;;;33.42;29.30;;;5.70;99.90;;;;;;5026251;28;21412;-78
2022/03/16 02:00:18;;;;;;;38.03;32.78;;;5.70;99.90;;;;;;5029066;28;20281;-78
2022/03/16 02:02:46;;;;;;;36.58;32.58;;;5.70;99.90;;;;;;5026286;28;20916;-77
2022/03/16 02:05:13;;;;;;;37.13;32.10;;;5.60;99.90;;;;;;5028228;28;20191;-78
2022/03/16 02:07:43;;;;;;;39.90;35.42;;;5.60;99.90;;;;;;5027911;28;20651;-78
2022/03/16 02:10:11;;;;;;;37.05;33.05;;;5.60;99.90;;;;;;5029759;28;20219;-76
2022/03/16 02:12:46;;;;;;;36.42;32.35;;;5.60;99.90;;;;;;5027985;28;20770;-78
2022/03/16 02:15:13;;;;;;;35.35;30.90;;;5.50;99.90;;;;;;5029553;28;20640;-77
2022/03/16 02:17:42;;;;;;;36.50;32.00;;;5.50;99.90;;;;;;5028878;28;20232;-76
2022/03/16 02:20:10;;;;;;;32.40;28.90;;;5.40;99.90;;;;;;5025133;28;20223;-79
2022/03/16 02:22:48;;;;;;;36.38;31.27;;;5.40;99.90;;;;;;5027210;28;20234;-75
2022/03/16 02:25:16;;;;;;;41.95;35.08;;;5.40;99.90;;;;;;5027544;28;20200;-78
2022/03/16 02:27:43;;;;;;;35.25;30.73;;;5.40;99.90;;;;;;5026744;28;20613;-77
2022/03/16 02:30:12;;;;;;;35.47;31.30;;;5.50;99.90;;;;;;5026080;28;20262;-82
2022/03/16 02:32:39;;;;;;;37.80;32.67;;;5.50;99.90;;;;;;5028143;28;20293;-78
2022/03/16 02:35:06;;;;;;;35.80;31.33;;;5.50;99.90;;;;;;5027242;28;20199;-76
2022/03/16 02:37:36;;;;;;;37.10;31.38;;;5.50;99.90;;;;;;5041961;28;20227;-77
2022/03/16 02:40:06;;;;;;;36.20;32.40;;;5.50;99.90;;;;;;5024413;28;20219;-76
2022/03/16 02:42:33;;;;;;;35.55;31.65;;;5.50;99.90;;;;;;5024393;28;20226;-78
2022/03/16 02:45:00;;;;;;;35.80;31.50;;;5.50;99.90;;;;;;5026658;28;20211;-76
2022/03/16 02:47:28;;;;;;;37.22;33.25;;;5.50;99.90;;;;;;5028608;28;20250;-76
2022/03/16 02:49:55;;;;;;;36.15;31.83;;;5.50;99.90;;;;;;5026182;28;20666;-79
2022/03/16 02:52:23;;;;;;;37.78;32.17;;;5.50;99.90;;;;;;5024103;28;20231;-77
2022/03/16 02:54:50;;;;;;;37.70;32.13;;;5.50;99.90;;;;;;5027333;28;20698;-77
2022/03/16 02:57:18;;;;;;;39.40;34.00;;;5.50;99.90;;;;;;5026787;28;20219;-77
2022/03/16 02:59:45;;;;;;;39.42;34.38;;;5.40;99.90;;;;;;5027824;28;20230;-78
2022/03/16 03:02:13;;;;;;;37.08;32.20;;;5.50;99.90;;;;;;5027216;28;20246;-77
2022/03/16 03:04:40;;;;;;;37.85;32.58;;;5.40;99.90;;;;;;5024488;28;20208;-76
2022/03/16 03:07:09;;;;;;;38.83;33.45;;;5.40;99.90;;;;;;5031924;28;20518;-77
2022/03/16 03:09:36;;;;;;;38.88;33.20;;;5.40;99.90;;;;;;5028495;28;20722;-77
2022/03/16 03:12:04;;;;;;;41.80;34.05;;;5.40;99.90;;;;;;5025673;28;20270;-79
2022/03/16 03:14:32;;;;;;;38.00;32.92;;;5.40;99.90;;;;;;5027366;28;20322;-75
2022/03/16 03:17:00;;;;;;;39.22;33.97;;;5.40;99.90;;;;;;5022805;28;20223;-76
2022/03/16 03:19:27;;;;;;;33.30;29.70;;;5.40;99.90;;;;;;5026909;28;20219;-76
2022/03/16 03:21:54;;;;;;;36.28;31.27;;;5.40;99.90;;;;;;5026600;28;20214;-76
2022/03/16 03:24:21;;;;;;;37.00;32.92;;;5.40;99.90;;;;;;5023960;28;20764;-77
2022/03/16 03:26:48;;;;;;;42.20;36.55;;;5.40;99.90;;;;;;5026281;28;20234;-75
2022/03/16 03:29:15;;;;;;;43.15;37.13;;;5.30;99.90;;;;;;5021502;28;20456;-76
2022/03/16 03:31:44;;;;;;;35.10;30.88;;;5.30;99.90;;;;;;5031392;28;20875;-75
2022/03/16 03:34:11;;;;;;;38.70;34.15;;;5.30;99.90;;;;;;5022220;28;20191;-75
2022/03/16 03:36:38;;;;;;;42.20;35.95;;;5.30;99.90;;;;;;5023280;28;20273;-75
2022/03/16 03:39:06;;;;;;;39.10;33.10;;;5.30;99.90;;;;;;5019850;28;20985;-75
2022/03/16 03:41:33;;;;;;;35.92;31.33;;;5.20;99.90;;;;;;5022232;28;20729;-76
2022/03/16 03:44:00;;;;;;;36.28;32.22;;;5.30;99.90;;;;;;5020834;28;20199;-76
2022/03/16 03:46:27;;;;;;;35.67;30.40;;;5.30;99.90;;;;;;5023640;28;20227;-78
2022/03/16 03:48:56;;;;;;;34.75;31.00;;;5.30;99.90;;;;;;5024709;28;20246;-77
2022/03/16 03:51:23;;;;;;;37.60;33.45;;;5.30;99.90;;;;;;5023095;28;20204;-79
2022/03/16 03:53:50;;;;;;;41.08;35.00;;;5.30;99.90;;;;;;5022954;28;20660;-76
2022/03/16 03:56:17;;;;;;;41.60;35.92;;;5.20;99.90;;;;;;5026697;28;20654;-78
2022/03/16 03:58:45;;;;;;;42.72;36.55;;;5.20;99.90;;;;;;5022156;28;20278;-76
2022/03/16 04:01:12;;;;;;;37.53;33.40;;;5.10;99.90;;;;;;5022355;28;20231;-75
2022/03/16 04:03:39;;;;;;;37.90;32.72;;;5.10;99.90;;;;;;5017028;28;20706;-77
2022/03/16 04:06:08;;;;;;;38.50;33.08;;;5.10;99.90;;;;;;5026071;28;20207;-76
2022/03/16 04:08:35;;;;;;;38.45;34.28;;;5.10;99.90;;;;;;5024368;28;20219;-76
2022/03/16 04:11:03;;;;;;;42.42;35.53;;;5.10;99.90;;;;;;5024666;28;20204;-78
2022/03/16 04:13:30;;;;;;;41.42;34.90;;;5.10;99.90;;;;;;5022566;28;20272;-77
2022/03/16 04:15:57;;;;;;;40.92;34.58;;;5.00;99.90;;;;;;5019692;28;20207;-76
2022/03/16 04:18:26;;;;;;;37.83;32.78;;;5.00;99.90;;;;;;5023802;28;20277;-78
2022/03/16 04:20:52;;;;;;;44.35;35.33;;;5.00;99.90;;;;;;5024739;28;20511;-75
2022/03/16 04:23:21;;;;;;;40.38;34.28;;;5.00;99.90;;;;;;5024735;28;20474;-80
2022/03/16 04:25:48;;;;;;;39.78;33.78;;;5.00;99.90;;;;;;5027055;28;20753;-77
2022/03/16 04:28:15;;;;;;;43.15;34.60;;;5.00;99.90;;;;;;5025257;28;20215;-75
2022/03/16 04:30:42;;;;;;;43.83;36.00;;;5.00;99.90;;;;;;5023827;28;20214;-76
2022/03/16 04:33:09;;;;;;;39.08;33.58;;;4.90;99.90;;;;;;5023019;28;20237;-77
2022/03/16 04:35:36;;;;;;;39.65;34.30;;;5.00;99.90;;;;;;5024822;28;20196;-77
2022/03/16 04:38:03;;;;;;;42.03;36.05;;;5.00;99.90;;;;;;5023028;28;20224;-78
2022/03/16 04:40:32;;;;;;;42.90;36.55;;;4.90;99.90;;;;;;5022574;28;20219;-76
2022/03/16 04:42:59;;;;;;;40.63;35.85;;;4.90;99.90;;;;;;5020644;28;20444;-77
2022/03/16 04:45:26;;;;;;;39.85;34.20;;;4.90;99.90;;;;;;5024662;28;20200;-76
2022/03/16 04:47:53;;;;;;;39.33;34.85;;;4.90;99.90;;;;;;5028553;28;20225;-78
2022/03/16 04:50:20;;;;;;;37.03;32.92;;;5.00;99.90;;;;;;5019821;28;20504;-79
2022/03/16 04:52:49;;;;;;;39.30;32.22;;;5.00;99.90;;;;;;5021830;28;20227;-77
2022/03/16 04:55:17;;;;;;;40.13;34.05;;;5.00;99.90;;;;;;5023842;28;20200;-78
2022/03/16 04:57:45;;;;;;;41.22;33.40;;;4.90;99.90;;;;;;5021515;28;20729;-77
2022/03/16 05:00:14;;;;;;;41.20;34.20;;;4.90;99.90;;;;;;5020641;28;20220;-76
2022/03/16 05:02:41;;;;;;;40.55;35.08;;;4.90;99.90;;;;;;5019747;28;20581;-78
2022/03/16 05:05:10;;;;;;;36.95;32.38;;;4.90;99.90;;;;;;5021640;28;20199;-77
2022/03/16 05:07:37;;;;;;;38.70;33.03;;;4.90;99.90;;;;;;5019359;28;20366;-77
2022/03/16 05:10:06;;;;;;;39.70;33.55;;;4.90;99.90;;;;;;5023504;28;20501;-77
2022/03/16 05:12:38;;;;;;;42.65;36.17;;;4.90;99.90;;;;;;5022806;28;20251;-78
2022/03/16 05:15:08;;;;;;;38.88;32.47;;;5.00;99.90;;;;;;5022548;28;20278;-77
2022/03/16 05:17:35;;;;;;;40.47;33.20;;;5.00;99.90;;;;;;5022296;28;20230;-78
2022/03/16 05:20:03;;;;;;;40.22;33.88;;;5.00;99.90;;;;;;5026611;28;20212;-77
2022/03/16 05:22:30;;;;;;;43.00;36.83;;;5.00;99.90;;;;;;5024024;28;20317;-77
2022/03/16 05:24:57;;;;;;;44.25;38.03;;;5.00;99.90;;;;;;5020436;28;20199;-78
2022/03/16 05:27:24;;;;;;;43.92;35.95;;;4.90;99.90;;;;;;5021394;28;20223;-76
2022/03/16 05:29:51;;;;;;;39.78;33.90;;;4.90;99.90;;;;;;5021287;28;20576;-77
2022/03/16 05:32:20;;;;;;;40.55;36.13;;;5.00;99.90;;;;;;5020706;28;20228;-76
2022/03/16 05:34:47;;;;;;;40.80;34.97;;;5.00;99.90;;;;;;5021612;28;20999;-73
2022/03/16 05:37:14;;;;;;;42.20;35.65;;;5.00;99.90;;;;;;5025085;28;20215;-77
2022/03/16 05:39:41;;;;;;;38.70;33.75;;;5.00;99.90;;;;;;5020962;28;20721;-76
2022/03/16 05:42:09;;;;;;;41.35;35.83;;;5.00;99.90;;;;;;5018682;28;20227;-76
2022/03/16 05:44:36;;;;;;;41.70;35.42;;;5.00;99.90;;;;;;5024301;28;20192;-77
2022/03/16 05:47:04;;;;;;;36.80;30.98;;;5.00;99.90;;;;;;5024685;28;20230;-78
2022/03/16 05:49:32;;;;;;;38.92;33.75;;;4.90;99.90;;;;;;5024343;28;20227;-76
2022/03/16 05:51:59;;;;;;;39.47;33.45;;;4.90;99.90;;;;;;5021930;28;20293;-78
2022/03/16 05:54:26;;;;;;;41.38;35.67;;;5.00;99.90;;;;;;5022179;28;20234;-76
2022/03/16 05:56:53;;;;;;;38.33;32.97;;;5.00;99.90;;;;;;5021004;28;20195;-76
2022/03/16 05:59:20;;;;;;;39.47;33.50;;;5.10;99.90;;;;;;5023220;28;20581;-75
2022/03/16 06:01:47;;;;;;;39.63;33.00;;;5.10;99.90;;;;;;5021671;28;20208;-76
2022/03/16 06:04:15;;;;;;;36.63;31.23;;;5.10;99.90;;;;;;5023204;28;20199;-76
2022/03/16 06:06:43;;;;;;;44.17;35.38;;;5.20;99.90;;;;;;5019338;28;20684;-77
2022/03/16 06:09:10;;;;;;;40.92;32.65;;;5.20;99.90;;;;;;5024740;28;20777;-75
2022/03/16 06:11:39;;;;;;;40.90;33.97;;;5.30;99.90;;;;;;5024351;28;20791;-77
2022/03/16 06:14:06;;;;;;;42.30;34.90;;;5.40;99.90;;;;;;5017200;28;20227;-78
2022/03/16 06:16:33;;;;;;;40.40;34.33;;;5.40;99.90;;;;;;5022573;28;20721;-77
2022/03/16 06:19:00;;;;;;;39.97;33.15;;;5.40;99.90;;;;;;5023430;28;20223;-75
2022/03/16 06:21:27;;;;;;;40.53;34.88;;;5.50;99.90;;;;;;5029735;28;20693;-80
2022/03/16 06:23:55;;;;;;;40.25;35.60;;;5.50;99.90;;;;;;5024638;28;20232;-76
2022/03/16 06:26:22;;;;;;;40.78;33.60;;;5.60;99.90;;;;;;5021516;28;20204;-79
2022/03/16 06:28:49;;;;;;;40.05;35.65;;;5.70;99.90;;;;;;5013165;28;20227;-76
2022/03/16 06:31:16;;;;;;;40.72;34.25;;;5.80;99.90;;;;;;5017156;28;20197;-83
2022/03/16 06:33:44;;;;;;;39.08;34.83;;;5.80;99.90;;;;;;5014903;28;20226;-76
2022/03/16 06:36:11;;;;;;;37.67;33.55;;;5.90;99.90;;;;;;5017233;28;20207;-77
2022/03/16 06:38:38;;;;;;;42.10;36.22;;;6.00;99.90;;;;;;5019248;28;20222;-78
2022/03/16 06:41:08;;;;;;;47.05;38.15;;;6.10;99.90;;;;;;5020691;28;20702;-76
2022/03/16 06:43:36;;;;;;;43.45;36.65;;;6.20;99.90;;;;;;5017484;28;20560;-78
2022/03/16 06:46:03;;;;;;;47.22;39.67;;;6.20;99.90;;;;;;5015490;28;20196;-76
2022/03/16 06:48:30;;;;;;;45.13;38.55;;;6.30;99.90;;;;;;5020196;28;20232;-75
2022/03/16 06:50:57;;;;;;;40.70;36.17;;;6.30;99.90;;;;;;5014429;28;20618;-77
2022/03/16 06:53:25;;;;;;;46.42;39.33;;;6.40;99.90;;;;;;5017601;28;20669;-76
2022/03/16 06:55:52;;;;;;;48.58;40.78;;;6.50;99.90;;;;;;5017394;28;20742;-79
2022/03/16 06:58:20;;;;;;;48.15;40.15;;;6.70;99.90;;;;;;5017403;28;20223;-75
2022/03/16 07:00:48;;;;;;;47.80;39.90;;;6.70;99.90;;;;;;5017413;28;20644;-74
2022/03/16 07:03:15;;;;;;;48.60;39.80;;;6.70;99.90;;;;;;5016015;28;20281;-75
2022/03/16 07:05:42;;;;;;;46.60;39.70;;;6.70;99.90;;;;;;5018946;28;20208;-79
2022/03/16 07:08:11;;;;;;;48.47;40.88;;;6.80;99.90;;;;;;5032542;28;20477;-76
2022/03/16 07:10:41;;;;;;;44.70;37.60;;;6.90;99.90;;;;;;5020368;28;20188;-78
2022/03/16 07:13:09;;;;;;;44.17;38.42;;;7.00;99.90;;;;;;5020820;28;20246;-76
2022/03/16 07:15:39;;;;;;;44.47;39.45;;;7.10;99.90;;;;;;5018433;28;20282;-78
2022/03/16 07:18:06;;;;;;;45.58;38.55;;;7.20;99.90;;;;;;5017923;28;20366;-74
2022/03/16 07:20:33;;;;;;;50.95;42.78;;;7.40;99.90;;;;;;5018474;28;20204;-76
2022/03/16 07:23:05;;;;;;;45.42;39.50;;;7.50;99.90;;;;;;5015202;28;20219;-76
2022/03/16 07:25:32;;;;;;;49.42;40.72;;;7.70;99.90;;;;;;5018055;28;20202;-81
2022/03/16 07:27:59;;;;;;;45.83;40.80;;;7.80;99.90;;;;;;5016392;28;20250;-77
2022/03/16 07:30:26;;;;;;;49.83;41.42;;;7.90;99.90;;;;;;5018664;28;20219;-78
2022/03/16 07:32:55;;;;;;;45.58;38.90;;;7.90;99.90;;;;;;5016293;28;20224;-78
2022/03/16 07:35:26;;;;;;;45.45;38.10;;;7.90;99.90;;;;;;5018030;28;20203;-76
2022/03/16 07:37:54;;;;;;;41.67;36.33;;;8.00;99.90;;;;;;5021026;28;20315;-76
2022/03/16 07:40:21;;;;;;;42.03;36.13;;;8.10;99.90;;;;;;5015101;28;20227;-78
2022/03/16 07:42:49;;;;;;;42.22;37.30;;;8.30;99.90;;;;;;5012721;28;20223;-77
2022/03/16 07:45:18;;;;;;;44.10;38.30;;;8.50;99.90;;;;;;5049233;22;20234;-80
2022/03/16 07:47:46;;;;;;;44.90;40.10;;;8.50;99.90;;;;;;5054420;28;20671;-78
2022/03/16 07:50:15;;;;;;;42.53;37.90;;;8.70;99.90;;;;;;5056602;28;20310;-80
2022/03/16 07:52:42;;;;;;;48.97;39.72;;;8.90;99.90;;;;;;5055235;28;20706;-79
2022/03/16 07:55:10;;;;;;;46.38;41.13;;;9.10;99.90;;;;;;5056575;28;20788;-79
2022/03/16 07:57:38;;;;;;;52.72;43.53;;;9.10;99.90;;;;;;5053394;28;20693;-78
2022/03/16 08:00:06;;;;;;;45.88;39.05;;;9.20;99.90;;;;;;5055825;28;20681;-79
2022/03/16 08:02:34;;;;;;;44.80;39.20;;;9.30;99.90;;;;;;5058219;28;20841;-78
2022/03/16 08:05:01;;;;;;;44.58;38.65;;;9.50;99.90;;;;;;5055470;28;20210;-77
2022/03/16 08:07:30;;;;;;;49.22;39.92;;;9.70;99.90;;;;;;5055701;28;20628;-76
2022/03/16 08:09:58;;;;;;;44.70;39.90;;;10.00;99.90;;;;;;5058642;28;20198;-76
2022/03/16 08:12:25;;;;;;;45.22;40.33;;;10.10;99.90;;;;;;5057139;28;20194;-78
2022/03/16 08:14:52;;;;;;;47.08;39.58;;;10.40;99.90;;;;;;5062176;28;20235;-76
2022/03/16 08:17:20;;;;;;;43.45;36.63;;;10.60;99.90;;;;;;5062915;28;20206;-77
2022/03/16 08:19:47;;;;;;;44.22;39.33;;;10.90;99.90;;;;;;5063132;28;20668;-78
2022/03/16 08:22:14;;;;;;;45.58;39.65;;;11.20;99.90;;;;;;5066264;28;20699;-76
2022/03/16 08:24:42;;;;;;;50.80;41.53;;;11.30;99.90;;;;;;5066647;28;20218;-80
2022/03/16 08:27:09;;;;;;;45.97;40.78;;;11.30;99.90;;;;;;5064384;28;20202;-79
2022/03/16 08:29:37;;;;;;;47.53;42.47;;;11.20;99.90;;;;;;5057787;28;20443;-79
2022/03/16 08:32:04;;;;;;;45.35;40.38;;;11.20;99.90;;;;;;5060492;28;20199;-75
2022/03/16 08:34:31;;;;;;;45.70;39.70;;;11.30;99.90;;;;;;5063115;28;20688;-79
2022/03/16 08:37:00;;;;;;;47.08;40.17;;;11.50;99.90;;;;;;5061940;28;20613;-78
2022/03/16 08:39:28;;;;;;;47.35;41.20;;;11.60;99.90;;;;;;5064422;28;20254;-79
2022/03/16 08:41:57;;;;;;;52.42;43.10;;;11.70;99.90;;;;;;5066337;28;20248;-78
2022/03/16 08:44:24;;;;;;;47.10;41.97;;;11.70;99.90;;;;;;5065968;28;20709;-78
2022/03/16 08:46:52;;;;;;;43.78;38.03;;;11.70;99.90;;;;;;5065146;28;20205;-80
2022/03/16 08:49:21;;;;;;;47.63;41.10;;;11.80;99.90;;;;;;5063683;28;20275;-78
2022/03/16 08:51:48;;;;;;;47.10;42.03;;;11.90;99.90;;;;;;5063142;28;20195;-80
2022/03/16 08:54:16;;;;;;;48.70;42.58;;;12.10;99.90;;;;;;5060024;28;20558;-79
2022/03/16 08:56:44;;;;;;;44.55;39.63;;;12.30;99.90;;;;;;5065786;28;20210;-78
2022/03/16 08:59:12;;;;;;;45.35;39.95;;;12.50;99.90;;;;;;5066613;28;20241;-78
2022/03/16 09:01:39;;;;;;;48.13;42.90;;;12.60;99.90;;;;;;5064105;28;20197;-79
2022/03/16 09:04:06;;;;;;;49.72;42.38;;;12.60;99.90;;;;;;5073794;28;20213;-76
2022/03/16 09:06:33;;;;;;;46.55;38.67;;;12.80;99.90;;;;;;5074010;28;20225;-77
2022/03/16 09:09:01;;;;;;;47.00;40.95;;;13.10;99.90;;;;;;5054936;28;20215;-78
2022/03/16 09:11:28;;;;;;;46.08;40.20;;;13.40;99.90;;;;;;5061304;28;20205;-79
2022/03/16 09:13:55;;;;;;;49.40;41.40;;;13.70;99.90;;;;;;5060729;28;20299;-79
2022/03/16 09:16:23;;;;;;;47.17;41.72;;;13.90;99.90;;;;;;5063502;28;20218;-79
2022/03/16 09:18:52;;;;;;;46.28;40.78;;;13.90;99.90;;;;;;5056070;28;20214;-78
2022/03/16 09:21:19;;;;;;;43.88;39.10;;;13.80;99.90;;;;;;5060869;28;20235;-77
2022/03/16 09:23:47;;;;;;;44.70;39.90;;;13.80;99.90;;;;;;5060106;28;20271;-78
2022/03/16 09:26:14;;;;;;;46.38;41.13;;;13.80;99.90;;;;;;5064345;28;20257;-79
2022/03/16 09:28:41;;;;;;;45.47;40.65;;;14.00;99.90;;;;;;5061833;28;20217;-79
2022/03/16 09:31:09;;;;;;;46.00;41.05;;;14.10;99.90;;;;;;5061235;28;20194;-78
2022/03/16 09:33:38;;;;;;;45.45;40.50;;;14.20;99.90;;;;;;5063639;28;20246;-78
2022/03/16 09:36:08;;;;;;;47.20;42.10;;;14.10;99.90;;;;;;5060898;28;20219;-80
2022/03/16 09:38:35;;;;;;;49.60;43.25;;;14.00;99.90;;;;;;5059235;28;20214;-78
2022/03/16 09:41:02;;;;;;;45.15;40.33;;;13.90;99.90;;;;;;5062403;28;20617;-76
2022/03/16 09:43:32;;;;;;;47.65;40.97;;;14.00;99.90;;;;;;5061491;28;20308;-78
2022/03/16 09:46:11;;;;;;;45.95;40.58;;;14.10;99.90;;;;;;5063069;28;20229;-78
2022/03/16 09:48:40;;;;;;;47.58;40.10;;;14.20;99.90;;;;;;5070538;28;20704;-77
2022/03/16 09:51:09;;;;;;;43.70;39.10;;;14.30;99.90;;;;;;5062826;28;20204;-77
2022/03/16 09:53:36;;;;;;;43.40;38.90;;;14.50;99.90;;;;;;5062591;28;20249;-78
2022/03/16 09:56:03;;;;;;;46.00;39.85;;;14.70;99.90;;;;;;5060570;28;20218;-79
2022/03/16 09:58:30;;;;;;;41.53;36.78;;;14.70;99.90;;;;;;5062464;28;20259;-79
2022/03/16 10:00:57;;;;;;;44.55;38.85;;;14.60;99.90;;;;;;5056768;28;20202;-78
2022/03/16 10:03:28;;;;;;;44.05;39.13;;;14.70;99.90;;;;;;5061758;28;20284;-79
2022/03/16 10:05:57;;;;;;;43.13;38.22;;;14.70;99.90;;;;;;5061750;28;20313;-78
2022/03/16 10:08:27;;;;;;;45.60;39.72;;;14.80;99.90;;;;;;5059147;28;20214;-74
2022/03/16 10:13:49;;;;;;;45.22;40.17;;;15.10;99.90;;;;;;5058269;28;20241;-78
2022/03/16 10:16:16;;;;;;;44.78;40.17;;;15.30;99.90;;;;;;5062409;28;20225;-77
2022/03/16 10:18:46;;;;;;;42.60;38.15;;;15.30;99.90;;;;;;5057249;28;20740;-78
2022/03/16 10:21:15;;;;;;;44.63;39.90;;;15.50;99.90;;;;;;5058799;28;20895;-77
2022/03/16 10:23:45;;;;;;;48.22;42.30;;;15.60;99.90;;;;;;5059384;28;20218;-79
2022/03/16 10:26:17;;;;;;;44.42;38.88;;;15.50;99.90;;;;;;5059359;28;20222;-78
2022/03/16 10:28:47;;;;;;;44.50;39.80;;;15.20;99.90;;;;;;5065734;28;20242;-80
2022/03/16 10:31:16;;;;;;;45.40;40.53;;;15.20;99.90;;;;;;5066756;28;20792;-79
2022/03/16 10:33:47;;;;;;;46.83;41.75;;;15.30;99.90;;;;;;5059887;28;20222;-78
2022/03/16 10:36:18;;;;;;;47.75;42.33;;;15.60;99.90;;;;;;5060147;28;20283;-79
2022/03/16 10:38:46;;;;;;;46.78;41.05;;;15.50;99.90;;;;;;5058081;28;20594;-78
2022/03/16 10:46:34;;;;;;;46.55;41.72;;;15.60;99.90;;;;;;5066450;28;20961;-80
2022/03/16 10:46:51;;;;;;;40.95;36.60;;;15.80;99.90;;;;;;5061591;28;20920;-79
2022/03/16 10:49:20;;;;;;;43.05;38.53;;;15.80;99.90;;;;;;5065694;28;20228;-81
2022/03/16 10:52:02;;;;;;;41.60;37.30;;;16.00;99.90;;;;;;5060732;28;20283;-78
2022/03/16 10:54:30;;;;;;;45.50;40.13;;;16.20;99.90;;;;;;5060397;28;20223;-76
2022/03/16 10:57:00;;;;;;;45.75;40.92;;;16.20;99.90;;;;;;5062976;28;20198;-78
2022/03/16 10:59:29;;;;;;;45.70;40.55;;;16.20;99.90;;;;;;5061173;28;20218;-77
2022/03/16 11:02:01;;;;;;;41.30;36.83;;;16.20;99.90;;;;;;5057668;28;20205;-78
2022/03/16 11:04:30;;;;;;;41.17;36.78;;;16.30;99.90;;;;;;5060971;28;20297;-80
2022/03/16 11:07:00;;;;;;;44.17;39.60;;;16.60;99.90;;;;;;5061277;28;20202;-77
2022/03/16 11:09:28;;;;;;;43.83;39.25;;;16.80;99.90;;;;;;5059844;28;20226;-79
2022/03/16 11:14:41;;;;;;;44.58;37.80;;;16.20;99.90;;;;;;5066008;28;20453;-79
2022/03/16 11:17:10;;;;;;;41.22;36.90;;;15.90;99.90;;;;;;5061556;28;20201;-76
2022/03/16 11:19:38;;;;;;;41.28;36.83;;;16.20;99.90;;;;;;5065191;28;20248;-79
2022/03/16 11:22:11;;;;;;;40.45;36.13;;;16.40;99.90;;;;;;5057150;28;20271;-79
2022/03/16 11:24:42;;;;;;;40.28;36.00;;;16.80;99.90;;;;;;5060720;28;20748;-79
2022/03/16 11:27:46;;;;;;;43.90;38.15;;;16.50;99.90;;;;;;5059269;28;20198;-79
2022/03/16 11:30:26;;;;;;;37.53;33.47;;;16.30;99.90;;;;;;5038434;28;20220;-78
2022/03/16 11:32:57;;;;;;;44.28;39.40;;;16.20;99.90;;;;;;5058512;28;20213;-74
2022/03/16 11:35:31;;;;;;;38.72;34.58;;;16.10;99.90;;;;;;5056632;28;20313;-75
2022/03/16 11:38:03;;;;;;;40.90;36.70;;;16.10;99.90;;;;;;5051894;28;20199;-77
2022/03/16 11:40:31;;;;;;;36.97;33.03;;;16.10;99.90;;;;;;5057072;28;20491;-77
2022/03/16 11:43:19;;;;;;;35.83;32.10;;;16.20;99.90;;;;;;5058025;28;20585;-76
2022/03/16 11:45:50;;;;;;;41.08;35.75;;;16.40;99.90;;;;;;5058228;28;20217;-76
2022/03/16 11:48:56;;;;;;;38.25;34.25;;;16.60;99.90;;;;;;5055948;28;20230;-79
2022/03/16 11:51:25;;;;;;;36.90;32.35;;;16.40;99.90;;;;;;5052679;28;20221;-77
2022/03/16 11:54:11;;;;;;;35.60;32.00;;;16.20;99.90;;;;;;5057604;28;20286;-75
2022/03/16 11:56:46;;;;;;;37.75;33.78;;;16.40;99.90;;;;;;5052979;28;20729;-76
2022/03/16 11:59:40;;;;;;;38.08;34.15;;;16.50;99.90;;;;;;5054299;28;20284;-76
2022/03/16 12:02:28;;;;;;;40.00;34.78;;;16.50;99.90;;;;;;5053659;28;20230;-75
2022/03/16 12:05:03;;;;;;;37.63;33.72;;;16.40;99.90;;;;;;5055915;28;20778;-78
2022/03/16 12:07:37;;;;;;;35.30;31.63;;;16.30;99.90;;;;;;5054365;28;20684;-74
2022/03/16 12:10:11;;;;;;;33.53;30.13;;;16.40;99.90;;;;;;5051726;28;20202;-77
2022/03/16 12:12:51;;;;;;;36.10;30.90;;;16.60;99.90;;;;;;5052308;28;20217;-76
2022/03/16 12:15:33;;;;;;;35.95;32.22;;;16.40;99.90;;;;;;5054322;28;20291;-75
2022/03/16 12:18:26;;;;;;;33.85;30.35;;;16.40;99.90;;;;;;5053560;28;20215;-76
2022/03/16 12:21:07;;;;;;;35.38;31.73;;;16.50;99.90;;;;;;5052870;28;20204;-76
2022/03/16 12:23:50;;;;;;;38.10;34.00;;;16.50;99.90;;;;;;5060830;28;20759;-78
2022/03/16 12:26:25;;;;;;;31.63;28.42;;;16.50;99.90;;;;;;5059670;28;20300;-78
2022/03/16 12:29:01;;;;;;;29.85;26.75;;;16.40;99.90;;;;;;5057091;28;20746;-79
2022/03/16 12:31:30;;;;;;;35.35;29.02;;;16.50;99.90;;;;;;5060614;28;20210;-78
2022/03/16 12:33:58;;;;;;;37.25;33.35;;;16.70;99.90;;;;;;5064402;28;20736;-76
2022/03/16 12:36:27;;;;;;;39.72;35.58;;;16.70;99.90;;;;;;5067263;28;20305;-76
2022/03/16 12:38:56;;;;;;;38.05;34.13;;;16.70;99.90;;;;;;5070587;28;20711;-78
2022/03/16 12:44:12;;;;;;;36.35;32.45;;;16.50;99.90;;;;;;5058720;28;20201;-77
2022/03/16 12:46:50;;;;;;;43.25;36.38;;;16.30;99.90;;;;;;5057697;28;20583;-79
2022/03/16 12:49:19;;;;;;;35.83;32.03;;;16.30;99.90;;;;;;5057443;28;20201;-79
2022/03/16 12:51:48;;;;;;;39.38;32.70;;;16.10;99.90;;;;;;5056116;28;20719;-81
2022/03/16 12:54:20;;;;;;;36.53;32.72;;;16.10;99.90;;;;;;5055702;28;20194;-80
2022/03/16 12:56:50;;;;;;;38.35;34.03;;;16.10;99.90;;;;;;5054661;28;20917;-79